Time;durP1;ratioP1;P1;durP2;ratioP2;P2;SDS_P1;SDS_P2;PMS_P1;PMS_P2;Temp;Humidity;BMP_temperature;BMP_pressure;BME280_temperature;BME280_humidity;BME280_pressure;Samples;Min_cycle;Max_cycle;Signal;HPM_P1;HPM_P2
2022/06/22 00:00:06;;;;;;;8.63;5.88;;;;;;;12.62;100.00;101307.50;5010681;28;20447;-67
2022/06/22 00:02:37;;;;;;;8.02;5.78;;;;;;;12.61;100.00;101316.13;5012163;28;20029;-67
2022/06/22 00:05:12;;;;;;;6.53;5.63;;;;;;;12.59;100.00;101320.41;5010548;28;20030;-67
2022/06/22 00:07:42;;;;;;;7.38;5.90;;;;;;;12.58;100.00;101318.63;5012663;28;20037;-67
2022/06/22 00:10:28;;;;;;;7.78;5.70;;;;;;;12.53;100.00;101308.09;5009794;28;20371;-67
2022/06/22 00:12:56;;;;;;;7.50;6.75;;;;;;;12.49;100.00;101312.31;5012058;28;20533;-67
2022/06/22 00:15:25;;;;;;;7.30;5.53;;;;;;;12.46;100.00;101304.44;5011712;28;20030;-67
2022/06/22 00:17:51;;;;;;;7.03;6.32;;;;;;;12.42;100.00;101294.75;5014148;28;20033;-67
2022/06/22 00:20:25;;;;;;;7.13;5.65;;;;;;;12.38;100.00;101289.44;5011235;28;20029;-67
2022/06/22 00:22:56;;;;;;;8.93;5.60;;;;;;;12.38;100.00;101290.28;5010012;28;20029;-67
2022/06/22 00:25:35;;;;;;;7.07;6.30;;;;;;;12.38;100.00;101285.09;5012337;28;20084;-68
2022/06/22 00:28:28;;;;;;;9.50;7.20;;;;;;;12.40;100.00;101280.81;5011994;28;20033;-67
2022/06/22 00:31:12;;;;;;;7.63;6.88;;;;;;;12.38;100.00;101289.44;5010633;28;20231;-67
2022/06/22 00:33:38;;;;;;;7.32;6.18;;;;;;;12.36;100.00;101289.34;5009944;28;20102;-67
2022/06/22 00:36:19;;;;;;;7.75;6.78;;;;;;;12.34;100.00;101289.31;5012350;28;20091;-67
2022/06/22 00:38:45;;;;;;;8.63;6.00;;;;;;;12.31;100.00;101283.13;5010947;28;20025;-67
2022/06/22 00:41:22;;;;;;;7.45;6.72;;;;;;;12.33;100.00;101281.47;5011315;28;20022;-67
2022/06/22 00:43:48;;;;;;;9.52;8.27;;;;;;;12.34;100.00;101283.25;5011795;28;20028;-67
2022/06/22 00:46:19;;;;;;;10.25;8.30;;;;;;;12.38;100.00;101276.44;5010736;28;20044;-67
2022/06/22 00:48:47;;;;;;;11.20;8.55;;;;;;;12.41;100.00;101285.19;5010367;28;20026;-67
2022/06/22 00:51:35;;;;;;;8.32;7.47;;;;;;;12.41;100.00;101300.78;5009230;28;20021;-67
2022/06/22 00:54:05;;;;;;;8.45;7.60;;;;;;;12.37;100.00;101298.94;5009168;28;20076;-67
2022/06/22 00:56:36;;;;;;;10.68;8.05;;;;;;;12.34;100.00;101288.44;5007845;28;20149;-67
2022/06/22 00:59:24;;;;;;;10.07;8.30;;;;;;;12.29;100.00;101290.00;5010436;28;20061;-66
2022/06/22 01:01:59;;;;;;;11.50;9.13;;;;;;;12.25;100.00;101283.81;5010039;28;20563;-67
2022/06/22 01:04:35;;;;;;;8.40;7.63;;;;;;;12.23;100.00;101285.50;5007438;28;20076;-67
2022/06/22 01:07:03;;;;;;;9.98;8.57;;;;;;;12.20;100.00;101281.06;5008055;28;20044;-67
2022/06/22 01:09:45;;;;;;;8.93;8.05;;;;;;;12.18;100.00;101272.34;5010287;28;20485;-67
2022/06/22 01:12:26;;;;;;;9.15;7.75;;;;;;;12.13;100.00;101269.59;5011252;28;20032;-66
2022/06/22 01:15:00;;;;;;;9.70;8.77;;;;;;;12.14;100.00;101286.09;5008351;28;20087;-67
2022/06/22 01:17:32;;;;;;;10.55;9.35;;;;;;;12.14;100.00;101291.28;5015519;28;20099;-67
2022/06/22 01:20:26;;;;;;;10.95;9.85;;;;;;;12.07;100.00;101299.66;5010756;28;20107;-67
2022/06/22 01:23:06;;;;;;;10.30;9.30;;;;;;;12.04;100.00;101304.75;5010624;28;20436;-67
2022/06/22 01:25:55;;;;;;;10.27;9.10;;;;;;;12.01;100.00;101311.63;5007454;28;20041;-67
2022/06/22 01:28:22;;;;;;;9.68;8.68;;;;;;;12.01;100.00;101305.53;5008827;28;20559;-67
2022/06/22 01:30:53;;;;;;;10.90;9.65;;;;;;;11.98;100.00;101295.91;5011050;28;20018;-67
2022/06/22 01:33:25;;;;;;;10.65;9.75;;;;;;;11.96;100.00;101287.19;5011588;28;20032;-67
2022/06/22 01:35:55;;;;;;;12.43;10.23;;;;;;;11.95;100.00;101289.72;5009964;28;20033;-67
2022/06/22 01:38:24;;;;;;;12.60;9.93;;;;;;;11.95;100.00;101272.44;5010308;28;20104;-67
2022/06/22 01:41:14;;;;;;;11.38;10.20;;;;;;;11.96;100.00;101260.34;5008785;28;20149;-67
2022/06/22 01:43:46;;;;;;;11.52;10.43;;;;;;;11.98;100.00;101262.16;5011844;28;20382;-67
2022/06/22 01:46:47;;;;;;;12.48;11.25;;;;;;;11.99;100.00;101256.16;5009767;28;20053;-66
2022/06/22 01:49:23;;;;;;;14.73;11.95;;;;;;;12.01;100.00;101267.47;5006140;28;20034;-67
2022/06/22 01:51:54;;;;;;;13.15;11.85;;;;;;;11.99;100.00;101271.72;5012928;28;20546;-67
2022/06/22 01:54:32;;;;;;;12.57;10.43;;;;;;;11.93;100.00;101268.91;5012483;28;20390;-66
2022/06/22 01:57:12;;;;;;;12.50;11.25;;;;;;;11.88;100.00;101267.88;5009501;28;20102;-67
2022/06/22 01:59:51;;;;;;;11.57;10.38;;;;;;;11.85;100.00;101265.19;5009502;28;20536;-67
2022/06/22 02:02:22;;;;;;;12.02;10.23;;;;;;;11.86;100.00;101269.53;5008804;28;20463;-67
2022/06/22 02:04:53;;;;;;;;;;;;;;;11.85;100.00;101272.97;5014504;28;20148;-67
2022/06/22 02:07:44;;;;;;;13.85;12.35;;;;;;;11.86;100.00;101256.56;5009290;28;20201;-67
2022/06/22 02:10:40;;;;;;;12.45;11.23;;;;;;;11.85;100.00;101267.78;5012193;28;20018;-67
2022/06/22 02:13:29;;;;;;;12.95;11.65;;;;;;;11.86;100.00;101272.13;5012440;28;20033;-67
2022/06/22 02:16:00;;;;;;;12.60;11.30;;;;;;;11.84;100.00;101271.19;5013532;28;20026;-66
2022/06/22 02:18:42;;;;;;;12.18;11.15;;;;;;;11.81;100.00;101260.72;5015466;28;20054;-66
2022/06/22 02:21:42;;;;;;;13.55;12.07;;;;;;;11.82;100.00;101258.16;5015127;28;20030;-67
2022/06/22 02:24:14;;;;;;;13.55;12.10;;;;;;;11.86;100.00;101262.63;5015248;28;20080;-66
2022/06/22 02:26:43;;;;;;;;;;;;;;;11.90;100.00;101266.22;5013242;28;20037;-67
2022/06/22 02:29:10;;;;;;;12.70;11.52;;;;;;;11.94;100.00;101262.00;5014783;28;20351;-66
2022/06/22 02:31:35;;;;;;;13.68;12.15;;;;;;;11.97;100.00;101257.81;5013969;28;20107;-66
2022/06/22 02:34:01;;;;;;;15.30;12.90;;;;;;;11.97;100.00;101251.72;5011616;28;20033;-66
2022/06/22 02:36:31;;;;;;;12.95;11.80;;;;;;;11.95;100.00;101243.00;5014076;28;20026;-66
2022/06/22 02:39:00;;;;;;;11.93;10.93;;;;;;;11.90;100.00;101235.06;5013269;28;20033;-66
2022/06/22 02:44:32;;;;;;;13.73;12.30;;;;;;;11.81;100.00;101230.44;5010884;28;20041;-66
2022/06/22 02:47:17;;;;;;;14.90;13.35;;;;;;;11.79;100.00;101236.41;5014648;28;20512;-66
2022/06/22 02:49:52;;;;;;;13.93;12.73;;;;;;;11.73;100.00;101245.75;5011127;28;20068;-66
2022/06/22 02:52:19;;;;;;;14.23;12.20;;;;;;;11.70;100.00;101242.19;5010693;28;20035;-66
2022/06/22 02:54:59;;;;;;;12.60;11.30;;;;;;;11.65;100.00;101239.44;5012131;28;20033;-66
2022/06/22 02:57:47;;;;;;;13.15;11.52;;;;;;;11.64;100.00;101242.84;5011516;28;20395;-66
2022/06/22 03:00:17;;;;;;;13.00;11.18;;;;;;;11.64;100.00;101245.44;5012130;28;20106;-67
2022/06/22 03:02:43;;;;;;;13.88;12.57;;;;;;;11.63;100.00;101251.47;5015935;28;20022;-66
2022/06/22 03:05:11;;;;;;;14.35;13.07;;;;;;;11.58;100.00;101258.22;5016195;28;20018;-66
2022/06/22 03:07:41;;;;;;;15.65;13.98;;;;;;;11.52;100.00;101254.59;5009040;28;20521;-66
2022/06/22 03:10:17;;;;;;;17.75;13.90;;;;;;;11.52;100.00;101264.97;5010765;28;20059;-66
2022/06/22 03:12:42;;;;;;;15.20;13.45;;;;;;;11.50;100.00;101258.84;5011275;28;20393;-66
2022/06/22 03:15:18;;;;;;;14.38;12.98;;;;;;;11.47;100.00;101261.34;5012571;28;20112;-66
2022/06/22 03:17:43;;;;;;;12.45;11.43;;;;;;;11.45;100.00;101257.78;5012096;28;20021;-66
2022/06/22 03:20:18;;;;;;;13.57;12.02;;;;;;;11.43;100.00;101259.44;5009249;28;20029;-66
2022/06/22 03:22:53;;;;;;;13.35;12.15;;;;;;;11.40;100.00;101255.03;5010738;28;20041;-66
2022/06/22 03:25:26;;;;;;;13.60;12.18;;;;;;;11.38;100.00;101246.31;5011225;28;20045;-66
2022/06/22 03:28:12;;;;;;;16.60;12.93;;;;;;;11.37;100.00;101241.09;5011221;28;20485;-66
2022/06/22 03:30:54;;;;;;;13.48;12.15;;;;;;;11.35;100.00;101240.16;5010643;28;20029;-66
2022/06/22 03:33:27;;;;;;;14.82;13.10;;;;;;;11.34;100.00;101238.38;5012807;28;20036;-66
2022/06/22 03:35:59;;;;;;;13.82;12.63;;;;;;;11.31;100.00;101238.25;5012219;28;20029;-66
2022/06/22 03:38:31;;;;;;;14.60;13.20;;;;;;;11.33;100.00;101249.59;5011802;28;20037;-66
2022/06/22 03:41:02;;;;;;;13.63;12.23;;;;;;;11.32;100.00;101243.50;5009697;28;20026;-66
2022/06/22 03:43:35;;;;;;;14.00;12.70;;;;;;;11.31;100.00;101238.25;5010667;28;20026;-66
2022/06/22 03:46:09;;;;;;;15.95;13.25;;;;;;;11.31;100.00;101239.16;5016254;28;20490;-66
2022/06/22 03:48:41;;;;;;;16.33;13.68;;;;;;;11.28;100.00;101234.72;5014295;28;20032;-66
2022/06/22 03:51:19;;;;;;;15.52;13.68;;;;;;;11.27;100.00;101227.78;5011996;28;20022;-66
2022/06/22 03:53:47;;;;;;;15.93;14.60;;;;;;;11.29;100.00;101226.13;5010874;28;20057;-66
2022/06/22 03:56:17;;;;;;;16.50;14.85;;;;;;;11.32;100.00;101227.03;5012634;28;20398;-66
2022/06/22 03:58:45;;;;;;;18.48;16.15;;;;;;;11.35;100.00;101227.16;5014308;28;20080;-66
2022/06/22 04:01:12;;;;;;;17.63;16.00;;;;;;;11.37;100.00;101228.13;5010918;28;20113;-66
2022/06/22 04:03:38;;;;;;;17.58;15.63;;;;;;;11.40;100.00;101225.63;5011850;28;20028;-66
2022/06/22 04:06:04;;;;;;;17.35;15.65;;;;;;;11.43;100.00;101228.31;5014599;28;20140;-66
2022/06/22 04:08:33;;;;;;;15.93;14.52;;;;;;;11.45;100.00;101226.66;5008440;28;20033;-66
2022/06/22 04:11:07;;;;;;;17.23;15.25;;;;;;;11.44;100.00;101219.69;5009443;28;20034;-66
2022/06/22 04:13:57;;;;;;;16.90;15.45;;;;;;;11.45;100.00;101226.66;5010578;28;20500;-67
2022/06/22 04:16:30;;;;;;;16.60;15.00;;;;;;;11.47;100.00;101218.91;5009217;28;20056;-66
2022/06/22 04:19:04;;;;;;;16.42;14.93;;;;;;;11.48;100.00;101224.16;5013349;28;20030;-66
2022/06/22 04:21:40;;;;;;;19.23;15.75;;;;;;;11.50;100.00;101225.09;5017334;28;20126;-66
2022/06/22 04:24:14;;;;;;;16.05;14.82;;;;;;;11.55;100.00;101234.75;5010558;28;20058;-66
2022/06/22 04:26:48;;;;;;;18.83;16.35;;;;;;;11.59;100.00;101234.91;5010649;28;20041;-66
2022/06/22 04:29:20;;;;;;;17.85;16.20;;;;;;;11.65;100.00;101234.25;5008939;28;20030;-66
2022/06/22 04:31:51;;;;;;;;;;;;;;;11.69;100.00;101233.53;5009599;28;20152;-66
2022/06/22 04:34:27;;;;;;;17.75;15.93;;;;;;;11.74;100.00;101234.56;5011206;28;19921;-66
2022/06/22 04:36:56;;;;;;;18.25;16.60;;;;;;;11.82;100.00;101244.31;5007358;28;20108;-66
2022/06/22 04:39:27;;;;;;;18.95;17.10;;;;;;;11.86;100.00;101243.56;5008093;28;20265;-66
2022/06/22 04:41:53;;;;;;;20.35;18.27;;;;;;;11.92;100.00;101243.78;5008577;28;20634;-67
2022/06/22 04:44:24;;;;;;;20.23;18.17;;;;;;;12.01;100.00;101245.81;5008032;28;20148;-66
2022/06/22 04:46:53;;;;;;;20.88;18.63;;;;;;;12.11;100.00;101240.09;5007149;28;20125;-66
2022/06/22 04:49:25;;;;;;;19.48;17.58;;;;;;;12.21;100.00;101246.47;5008127;28;20045;-66
2022/06/22 04:51:56;;;;;;;21.17;19.05;;;;;;;12.31;100.00;101249.34;5016267;28;20017;-66
2022/06/22 04:54:26;;;;;;;;;;;;;;;12.41;100.00;101247.94;5008033;28;20033;-66
2022/06/22 04:56:54;;;;;;;20.85;18.67;;;;;;;12.52;100.00;101256.06;5007600;28;20417;-67
2022/06/22 04:59:21;;;;;;;23.00;20.35;;;;;;;12.61;100.00;101262.41;5007089;28;20092;-66
2022/06/22 05:01:55;;;;;;;19.63;17.70;;;;;;;12.71;100.00;101255.78;5006746;28;20334;-66
2022/06/22 05:04:38;;;;;;;21.23;19.08;;;;;;;12.83;100.00;101262.16;5007276;28;20092;-66
2022/06/22 05:07:25;;;;;;;21.30;17.92;;;;;;;12.94;100.00;101273.78;5007158;28;20042;-66
2022/06/22 05:10:05;;;;;;;19.40;17.33;;;;;;;13.05;100.00;101268.00;5007041;28;20149;-66
2022/06/22 05:12:41;;;;;;;18.10;16.17;;;;;;;13.17;100.00;101273.53;5006054;28;20105;-66
2022/06/22 05:15:17;;;;;;;19.45;17.42;;;;;;;13.28;100.00;101268.66;5006524;28;20087;-66
2022/06/22 05:17:43;;;;;;;18.55;16.60;;;;;;;13.39;100.00;101268.06;5006626;28;20034;-66
2022/06/22 05:20:25;;;;;;;22.05;18.70;;;;;;;13.50;100.00;101265.75;5006992;28;20030;-66
2022/06/22 05:22:55;;;;;;;20.67;18.50;;;;;;;13.59;100.00;101258.22;5012009;28;20040;-66
2022/06/22 05:25:21;;;;;;;20.25;18.25;;;;;;;13.70;100.00;101258.50;5006920;28;20193;-66
2022/06/22 05:28:10;;;;;;;19.13;17.33;;;;;;;13.82;100.00;101263.13;5007069;28;20537;-66
2022/06/22 05:30:41;;;;;;;17.17;15.43;;;;;;;13.97;100.00;101265.25;5007627;28;20029;-66
2022/06/22 05:33:10;;;;;;;18.15;15.55;;;;;;;14.09;100.00;101275.09;5007314;28;20128;-66
2022/06/22 05:35:40;;;;;;;17.80;16.05;;;;;;;14.21;100.00;101273.63;5014055;28;20030;-67
2022/06/22 05:38:09;;;;;;;17.80;15.80;;;;;;;14.30;100.00;101273.84;5008468;28;20017;-66
2022/06/22 05:40:37;;;;;;;17.60;15.60;;;;;;;14.39;100.00;101268.81;5005372;28;20429;-66
2022/06/22 05:43:03;;;;;;;17.75;15.43;;;;;;;14.49;100.00;101267.31;5006740;28;20484;-66
2022/06/22 05:45:54;;;;;;;16.60;14.88;;;;;;;14.60;100.00;101275.38;5007013;28;20017;-66
2022/06/22 05:48:23;;;;;;;16.23;14.52;;;;;;;14.74;100.00;101282.63;5005699;28;20021;-66
2022/06/22 05:50:55;;;;;;;15.80;14.27;;;;;;;14.87;100.00;101279.47;5006843;28;20474;-66
2022/06/22 05:53:27;;;;;;;16.70;14.93;;;;;;;14.99;100.00;101283.19;5006275;28;20038;-66
2022/06/22 05:55:55;;;;;;;15.77;14.15;;;;;;;15.09;100.00;101287.72;5008589;28;20029;-67
2022/06/22 05:58:27;;;;;;;15.75;14.23;;;;;;;15.19;100.00;101295.75;5006007;28;20051;-66
2022/06/22 06:00:56;;;;;;;18.05;14.88;;;;;;;15.34;100.00;101297.81;5006608;28;20406;-66
2022/06/22 06:03:49;;;;;;;15.77;14.18;;;;;;;15.49;100.00;101292.88;5012926;28;20022;-66
2022/06/22 06:06:24;;;;;;;14.57;13.27;;;;;;;15.69;100.00;101307.13;5006826;28;20030;-66
2022/06/22 06:09:01;;;;;;;15.70;14.02;;;;;;;15.80;100.00;101304.72;5006565;28;20796;-66
2022/06/22 06:11:38;;;;;;;15.55;14.00;;;;;;;15.93;100.00;101311.03;5006581;28;20021;-66
2022/06/22 06:14:09;;;;;;;14.00;12.80;;;;;;;16.00;100.00;101310.34;5006384;28;20060;-66
2022/06/22 06:16:46;;;;;;;14.90;13.32;;;;;;;16.06;99.92;101307.81;5006206;28;20021;-66
2022/06/22 06:19:16;;;;;;;15.70;14.20;;;;;;;16.11;98.34;101304.41;5006476;28;20041;-66
2022/06/22 06:21:42;;;;;;;14.15;12.90;;;;;;;16.25;99.25;101313.34;5003490;28;20026;-66
2022/06/22 06:24:18;;;;;;;14.48;13.18;;;;;;;16.43;100.00;101302.28;5012035;28;20046;-66
2022/06/22 06:29:58;;;;;;;13.98;12.63;;;;;;;16.99;97.60;101307.41;5010918;28;20036;-66
2022/06/22 06:32:47;;;;;;;14.68;13.13;;;;;;;17.23;95.51;101306.00;5013317;28;20551;-66
2022/06/22 06:35:43;;;;;;;14.07;12.38;;;;;;;17.45;93.22;101311.44;5017338;28;20687;-67
2022/06/22 06:38:25;;;;;;;13.63;12.25;;;;;;;17.60;90.89;101304.63;5011018;28;20508;-66
2022/06/22 06:40:57;;;;;;;13.32;12.07;;;;;;;17.79;91.13;101310.91;5005163;28;20111;-66
2022/06/22 06:43:36;;;;;;;13.23;11.95;;;;;;;17.98;89.93;101317.22;5009135;28;20034;-66
2022/06/22 06:46:24;;;;;;;12.93;11.82;;;;;;;18.20;89.10;101301.69;5006272;28;20046;-66
2022/06/22 06:48:59;;;;;;;13.30;11.90;;;;;;;18.42;87.73;101295.72;5011872;28;20034;-66
2022/06/22 06:51:29;;;;;;;14.50;11.50;;;;;;;18.53;84.98;101285.28;5005458;28;20092;-66
2022/06/22 06:54:21;;;;;;;12.95;11.77;;;;;;;18.69;85.83;101289.75;5009440;28;20025;-66
2022/06/22 06:56:51;;;;;;;11.18;10.18;;;;;;;18.81;84.10;101277.56;5014550;28;20100;-66
2022/06/22 06:59:20;;;;;;;11.57;10.48;;;;;;;18.93;84.43;101277.59;5009790;28;20022;-66
2022/06/22 07:01:46;;;;;;;12.48;11.18;;;;;;;19.01;82.15;101274.13;5010015;28;20026;-67
2022/06/22 07:04:23;;;;;;;12.02;10.82;;;;;;;19.04;82.20;101276.75;5010023;28;20434;-66
2022/06/22 07:06:48;;;;;;;13.02;10.82;;;;;;;19.02;80.06;101275.88;5016683;28;20036;-67
2022/06/22 07:09:20;;;;;;;16.77;11.65;;;;;;;18.91;78.92;101273.22;5029651;28;20030;-66
2022/06/22 07:11:48;;;;;;;13.88;11.20;;;;;;;18.86;79.85;101264.44;5029596;28;20021;-66
2022/06/22 07:14:28;;;;;;;12.40;10.73;;;;;;;18.82;80.00;101269.69;5029420;28;20417;-66
2022/06/22 07:17:03;;;;;;;14.75;10.98;;;;;;;18.82;81.98;101274.03;5029590;28;20100;-67
2022/06/22 07:19:37;;;;;;;11.13;9.98;;;;;;;18.94;80.97;101274.09;5029419;28;20060;-66
2022/06/22 07:22:25;;;;;;;10.90;9.68;;;;;;;19.16;80.01;101271.59;5029426;28;20473;-66
2022/06/22 07:24:59;;;;;;;11.25;9.20;;;;;;;19.32;77.99;101269.00;5028472;28;20305;-66
2022/06/22 07:27:33;;;;;;;11.77;9.75;;;;;;;19.40;76.01;101267.28;5016025;28;20033;-66
2022/06/22 07:30:05;;;;;;;10.88;9.77;;;;;;;19.48;75.95;101263.78;5017109;28;20022;-66
2022/06/22 07:32:40;;;;;;;10.02;8.98;;;;;;;19.56;76.01;101254.16;5018255;28;20375;-66
2022/06/22 07:35:14;;;;;;;10.55;9.55;;;;;;;19.65;75.33;101241.03;5014586;28;20057;-66
2022/06/22 07:37:47;;;;;;;9.55;8.65;;;;;;;19.74;75.78;101234.88;5018489;28;20545;-66
2022/06/22 07:40:21;;;;;;;12.85;9.32;;;;;;;19.73;74.84;101237.53;5009358;28;20041;-66
2022/06/22 07:42:49;;;;;;;10.85;9.55;;;;;;;19.66;74.46;101229.63;5008526;28;20034;-66
2022/06/22 07:45:17;;;;;;;9.63;8.80;;;;;;;19.63;74.64;101237.50;5010565;28;20029;-66
2022/06/22 07:47:55;;;;;;;15.15;9.00;;;;;;;19.67;75.62;101257.66;5010293;28;20068;-66
2022/06/22 07:50:25;;;;;;;13.15;8.68;;;;;;;19.74;74.94;101255.91;5008461;28;20026;-67
2022/06/22 07:52:55;;;;;;;11.50;9.05;;;;;;;19.78;74.24;101259.41;5008156;28;20475;-66
2022/06/22 07:55:58;;;;;;;9.73;8.25;;;;;;;19.80;72.95;101255.03;5009182;28;20025;-66
2022/06/22 07:58:52;;;;;;;7.78;6.97;;;;;;;19.84;74.11;101253.28;5008260;28;20026;-66
2022/06/22 08:01:25;;;;;;;10.02;7.15;;;;;;;19.86;72.65;101255.03;5008275;28;20014;-66
2022/06/22 08:04:03;;;;;;;8.77;7.47;;;;;;;19.94;72.69;101246.25;5007882;28;20022;-66
2022/06/22 08:06:36;;;;;;;11.27;8.10;;;;;;;19.96;70.96;101255.91;5008164;28;20022;-67
2022/06/22 08:09:31;;;;;;;9.43;8.07;;;;;;;20.03;71.29;101262.03;5008649;28;20034;-66
2022/06/22 08:12:03;;;;;;;10.27;7.65;;;;;;;20.08;71.04;101260.31;5007898;28;20556;-67
2022/06/22 08:14:32;;;;;;;9.35;7.10;;;;;;;20.19;71.49;101262.03;5007928;28;20386;-67
2022/06/22 08:17:01;;;;;;;8.70;6.93;;;;;;;20.27;70.73;101260.28;5007756;28;20113;-67
2022/06/22 08:19:29;;;;;;;11.23;6.80;;;;;;;20.39;69.80;101264.66;5007766;28;20036;-66
2022/06/22 08:22:00;;;;;;;10.20;6.72;;;;;;;20.66;69.32;101267.19;5006290;28;20053;-67
2022/06/22 08:24:27;;;;;;;9.02;6.95;;;;;;;20.86;67.01;101265.38;5007033;28;20046;-67
2022/06/22 08:26:55;;;;;;;6.80;6.07;;;;;;;21.04;68.19;101266.19;5006695;28;20184;-67
2022/06/22 08:29:25;;;;;;;9.82;5.53;;;;;;;21.26;69.04;101268.72;5007036;28;20030;-67
2022/06/22 08:32:06;;;;;;;8.88;6.38;;;;;;;21.51;66.74;101275.59;5007599;28;20462;-66
2022/06/22 08:34:36;;;;;;;7.18;5.75;;;;;;;21.71;63.76;101275.44;5006575;28;20048;-66
2022/06/22 08:37:17;;;;;;;8.20;5.43;;;;;;;21.89;64.22;101277.06;5008212;28;20056;-66
2022/06/22 08:39:57;;;;;;;6.43;5.80;;;;;;;22.12;63.10;101277.75;5013944;28;20207;-66
2022/06/22 08:42:28;;;;;;;7.25;4.95;;;;;;;22.29;61.04;101270.53;5007749;28;20438;-66
2022/06/22 08:45:22;;;;;;;5.95;4.75;;;;;;;22.47;60.71;101265.94;5007792;28;20556;-67
2022/06/22 08:48:12;;;;;;;8.75;4.57;;;;;;;22.63;58.97;101276.38;5007735;28;20022;-66
2022/06/22 08:50:52;;;;;;;7.65;4.43;;;;;;;22.76;58.12;101277.97;5007906;28;20040;-66
2022/06/22 08:53:41;;;;;;;8.90;5.25;;;;;;;22.86;55.81;101269.94;5013417;28;20025;-66
2022/06/22 08:56:49;;;;;;;5.68;3.75;;;;;;;22.94;57.20;101273.34;5008205;28;20087;-66
2022/06/22 08:59:35;;;;;;;6.50;3.47;;;;;;;23.11;54.57;101277.53;5007944;28;20022;-67
2022/06/22 09:02:36;;;;;;;9.23;2.95;;;;;;;23.21;54.44;101278.25;5007989;28;20036;-66
2022/06/22 09:05:21;;;;;;;5.78;3.10;;;;;;;23.26;52.69;101260.59;5014568;28;20112;-66
2022/06/22 09:08:15;;;;;;;6.07;2.75;;;;;;;23.45;53.25;101260.34;5006967;28;20022;-66
2022/06/22 09:11:07;;;;;;;6.53;2.42;;;;;;;23.69;53.92;101256.41;5008263;28;20041;-66
2022/06/22 09:13:35;;;;;;;4.75;2.97;;;;;;;23.74;49.16;101264.28;5007698;28;20029;-66
2022/06/22 09:16:15;;;;;;;5.25;2.42;;;;;;;23.78;50.19;101268.63;5007238;28;20501;-66
2022/06/22 09:18:52;;;;;;;5.38;2.63;;;;;;;23.86;52.02;101263.19;5006383;28;20230;-67
2022/06/22 09:21:40;;;;;;;3.85;2.63;;;;;;;23.97;50.72;101279.78;5010925;28;20043;-67
2022/06/22 09:24:25;;;;;;;7.80;3.20;;;;;;;24.11;50.45;101279.53;5009934;28;20065;-67
2022/06/22 09:26:53;;;;;;;7.13;3.33;;;;;;;24.20;49.61;101281.16;5016362;28;20046;-66
2022/06/22 09:29:24;;;;;;;7.80;3.38;;;;;;;23.98;48.24;101284.16;5007262;28;20381;-67
2022/06/22 09:32:03;;;;;;;5.05;2.97;;;;;;;24.09;48.70;101280.44;5006302;28;20021;-67
2022/06/22 09:34:44;;;;;;;4.43;2.88;;;;;;;24.07;47.87;101285.75;5005074;28;20096;-67
2022/06/22 09:37:21;;;;;;;5.50;2.25;;;;;;;24.26;49.56;101290.75;5006512;28;20037;-67
2022/06/22 09:40:15;;;;;;;6.40;3.03;;;;;;;24.43;48.60;101276.34;5014448;28;20436;-67
2022/06/22 09:43:00;;;;;;;5.70;2.22;;;;;;;24.62;49.94;101282.13;5007200;28;20076;-67
2022/06/22 09:46:13;;;;;;;4.28;2.03;;;;;;;24.86;50.20;101281.66;5007594;28;20026;-67
2022/06/22 09:49:10;;;;;;;5.32;2.13;;;;;;;24.91;46.33;101291.25;5006641;28;20060;-67
2022/06/22 09:52:10;;;;;;;4.55;2.78;;;;;;;25.07;47.74;101280.34;5006514;28;20029;-67
2022/06/22 09:58:03;;;;;;;5.90;2.35;;;;;;;25.13;42.79;101276.69;5005863;28;20040;-67
2022/06/22 10:00:37;;;;;;;6.03;2.10;;;;;;;24.91;42.26;101271.84;5006746;28;20489;-67
2022/06/22 10:03:15;;;;;;;4.75;2.00;;;;;;;24.99;44.49;101269.06;5006386;28;20040;-67
2022/06/22 10:06:05;;;;;;;3.17;1.77;;;;;;;25.13;45.67;101271.41;5018676;28;20057;-67
2022/06/22 10:08:51;;;;;;;4.70;2.67;;;;;;;25.18;44.54;101270.34;5006819;28;20022;-67
2022/06/22 10:11:33;;;;;;;4.75;1.70;;;;;;;25.20;42.92;101267.69;5006331;28;20788;-67
2022/06/22 10:14:17;;;;;;;4.20;2.20;;;;;;;25.15;42.75;101262.47;5007793;28;20044;-67
2022/06/22 10:16:57;;;;;;;6.05;2.10;;;;;;;25.11;41.59;101255.53;5006165;28;20026;-67
2022/06/22 10:19:34;;;;;;;5.40;2.25;;;;;;;25.13;43.15;101261.66;5006554;28;20065;-67
2022/06/22 10:22:21;;;;;;;5.25;2.88;;;;;;;25.09;42.39;101260.00;5013579;28;20057;-67
2022/06/22 10:25:02;;;;;;;3.50;2.00;;;;;;;25.26;45.31;101250.75;5010402;28;20057;-67
2022/06/22 10:27:32;;;;;;;7.18;2.47;;;;;;;25.33;44.04;101248.84;5005321;28;20097;-67
2022/06/22 10:30:19;;;;;;;6.50;2.80;;;;;;;25.52;44.43;101243.97;5006833;28;20060;-67
2022/06/22 10:32:52;;;;;;;4.25;2.15;;;;;;;25.56;42.03;101250.94;5009986;28;20017;-67
2022/06/22 10:35:24;;;;;;;3.83;2.20;;;;;;;25.56;42.24;101243.00;5009530;28;20140;-67
2022/06/22 10:38:02;;;;;;;4.63;2.25;;;;;;;25.66;45.78;101247.19;5010390;28;20030;-67
2022/06/22 10:47:24;;;;;;;3.85;2.20;;;;;;;26.16;43.02;101238.84;5010599;28;20036;-67
2022/06/22 10:50:08;;;;;;;4.50;1.92;;;;;;;26.16;40.23;101241.50;5009734;28;20032;-67
2022/06/22 10:52:36;;;;;;;6.18;2.72;;;;;;;26.09;41.84;101235.47;5009050;28;20025;-68
2022/06/22 10:55:10;;;;;;;5.35;2.50;;;;;;;26.01;43.28;101233.03;5008698;28;20530;-68
2022/06/22 10:57:51;;;;;;;4.78;2.03;;;;;;;26.05;40.21;101233.81;5008806;28;20044;-68
2022/06/22 11:00:22;;;;;;;5.10;2.30;;;;;;;26.04;39.85;101238.25;5007319;28;20040;-67
2022/06/22 11:03:19;;;;;;;5.50;1.50;;;;;;;26.24;42.52;101236.84;5008252;28;20329;-67
2022/06/22 11:06:13;;;;;;;5.18;2.45;;;;;;;26.37;42.83;101240.91;5021001;28;20033;-68
2022/06/22 11:08:46;;;;;;;4.40;2.30;;;;;;;26.45;41.94;101227.41;5014112;28;20116;-68
2022/06/22 11:11:37;;;;;;;5.80;1.98;;;;;;;26.53;42.96;101228.97;5012233;28;20088;-67
2022/06/22 11:14:26;;;;;;;4.70;2.20;;;;;;;26.67;41.83;101231.22;5010192;28;20029;-68
2022/06/22 11:17:35;;;;;;;4.97;2.03;;;;;;;26.59;40.91;101239.41;5021867;28;20129;-67
2022/06/22 11:20:32;;;;;;;6.97;2.13;;;;;;;26.71;41.78;101239.06;5016019;28;20018;-67
2022/06/22 11:23:15;;;;;;;5.82;2.20;;;;;;;26.80;41.36;101232.59;5010733;28;20512;-67
2022/06/22 11:32:40;;;;;;;4.85;1.70;;;;;;;27.00;41.69;101228.47;5012206;28;20053;-67
2022/06/22 11:35:24;;;;;;;3.47;2.10;;;;;;;26.99;39.72;101226.69;5008193;28;20140;-67
2022/06/22 11:38:14;;;;;;;5.78;2.35;;;;;;;26.96;40.19;101232.13;5008762;28;20022;-67
2022/06/22 11:40:58;;;;;;;4.13;1.60;;;;;;;27.04;41.46;101239.91;5009781;28;20025;-67
2022/06/22 11:43:26;;;;;;;4.93;2.03;;;;;;;27.08;40.07;101239.75;5006497;28;20030;-67
2022/06/22 11:45:51;;;;;;;5.43;1.92;;;;;;;26.93;37.28;101248.19;5009996;28;20037;-67
2022/06/22 11:48:46;;;;;;;4.85;1.75;;;;;;;26.91;38.89;101250.84;5007538;28;20026;-67
2022/06/22 11:51:55;;;;;;;3.53;1.48;;;;;;;27.12;40.60;101243.19;5012207;28;20107;-67
2022/06/22 11:54:28;;;;;;;2.30;1.80;;;;;;;27.23;39.53;101250.81;5008589;28;20513;-67
2022/06/22 11:56:57;;;;;;;5.55;1.92;;;;;;;27.30;39.58;101230.19;5009935;28;20359;-68
2022/06/22 11:59:57;;;;;;;6.85;1.75;;;;;;;27.26;38.97;101234.75;5006605;28;20502;-68
2022/06/22 12:02:38;;;;;;;5.50;1.50;;;;;;;27.42;39.68;101237.78;5007955;28;20029;-68
2022/06/22 12:05:15;;;;;;;;;;;;;;;27.48;38.78;101239.38;5008632;28;20033;-68
2022/06/22 12:07:49;;;;;;;2.85;1.58;;;;;;;27.52;37.01;101237.47;5007768;28;19914;-67
2022/06/22 12:10:40;;;;;;;4.18;2.00;;;;;;;27.29;37.58;101234.66;5008043;28;20037;-67
2022/06/22 12:13:11;;;;;;;4.03;2.15;;;;;;;27.24;37.74;101231.25;5010841;28;20303;-67
2022/06/22 12:15:54;;;;;;;3.75;2.05;;;;;;;27.19;37.44;101233.22;5009253;28;20022;-67
2022/06/22 12:18:19;;;;;;;5.00;2.22;;;;;;;27.08;36.75;101226.44;5011913;28;20028;-68
2022/06/22 12:20:57;;;;;;;6.10;1.98;;;;;;;27.04;37.69;101223.94;5009507;28;20382;-68